createdAt,value
2019-02-20T00:01:32.947Z,10.93
2019-02-20T00:04:21.488Z,11.07
2019-02-20T00:07:09.547Z,11.67
2019-02-20T00:13:17.533Z,10.23
2019-02-20T00:16:05.609Z,11.37
2019-02-20T00:18:53.547Z,10.20
2019-02-20T00:21:42.170Z,10.50
2019-02-20T00:24:30.523Z,10.90
2019-02-20T00:27:18.456Z,11.63
2019-02-20T00:30:06.571Z,11.10
2019-02-20T00:32:54.604Z,11.00
2019-02-20T00:35:42.574Z,10.47
2019-02-20T00:38:30.878Z,10.40
2019-02-20T00:41:19.574Z,10.83
2019-02-20T00:47:34.619Z,10.10
2019-02-20T00:50:24.246Z,10.43
2019-02-20T00:56:36.375Z,10.63
2019-02-20T00:59:24.066Z,10.37
2019-02-20T01:02:12.246Z,10.77
2019-02-20T01:05:00.420Z,9.80
2019-02-20T01:07:48.469Z,10.87
2019-02-20T01:10:36.708Z,11.60
2019-02-20T01:13:24.645Z,10.93
2019-02-20T01:16:13.120Z,10.77
2019-02-20T01:19:01.209Z,10.67
2019-02-20T01:21:49.990Z,10.93
2019-02-20T01:24:38.239Z,10.53
2019-02-20T01:27:26.212Z,10.63
2019-02-20T01:30:14.421Z,11.13
2019-02-20T01:33:02.489Z,9.50
2019-02-20T01:35:50.639Z,11.23
2019-02-20T01:38:38.530Z,10.70
2019-02-20T01:41:27.078Z,11.17
2019-02-20T01:44:15.616Z,10.87
2019-02-20T01:47:03.897Z,11.53
2019-02-20T01:49:52.783Z,10.17
2019-02-20T01:52:40.659Z,10.67
2019-02-20T01:55:28.607Z,10.80
2019-02-20T01:58:17.181Z,10.20
2019-02-20T02:01:05.352Z,10.53
2019-02-20T02:03:53.291Z,11.17
2019-02-20T02:06:41.072Z,10.43
2019-02-20T02:09:29.280Z,9.80
2019-02-20T02:12:17.572Z,9.93
2019-02-20T02:15:05.634Z,9.63
2019-02-20T02:17:54.001Z,9.70
2019-02-20T02:20:42.938Z,9.33
2019-02-20T02:23:31.617Z,9.60
2019-02-20T02:26:19.588Z,9.27
2019-02-20T02:32:00.079Z,8.67
2019-02-20T02:34:48.444Z,8.23
2019-02-20T02:37:37.668Z,7.50
2019-02-20T02:40:25.775Z,7.17
2019-02-20T02:43:14.025Z,7.20
2019-02-20T02:46:02.568Z,7.27
2019-02-20T02:48:50.344Z,7.70
2019-02-20T02:51:38.149Z,7.73
2019-02-20T02:54:26.728Z,7.50
2019-02-20T02:57:14.635Z,7.50
2019-02-20T03:00:02.868Z,6.93
2019-02-20T03:02:51.260Z,6.80
2019-02-20T03:05:39.282Z,7.43
2019-02-20T03:08:27.893Z,7.77
2019-02-20T03:11:15.723Z,8.27
2019-02-20T03:14:04.430Z,7.63
2019-02-20T03:16:52.469Z,7.93
2019-02-20T03:19:41.030Z,7.70
2019-02-20T03:22:29.779Z,7.73
2019-02-20T03:25:17.619Z,7.90
2019-02-20T03:28:05.594Z,7.23
2019-02-20T03:30:54.425Z,7.47
2019-02-20T03:33:42.870Z,7.10
2019-02-20T03:36:31.038Z,6.30
2019-02-20T03:39:19.323Z,6.90
2019-02-20T03:42:08.522Z,6.63
2019-02-20T03:44:57.108Z,6.57
2019-02-20T03:51:04.943Z,7.53
2019-02-20T03:53:53.355Z,7.80
2019-02-20T03:56:41.083Z,6.83
2019-02-20T03:59:29.166Z,7.67
2019-02-20T04:02:17.363Z,7.00
2019-02-20T04:05:05.454Z,5.93
2019-02-20T04:07:53.437Z,6.23
2019-02-20T04:10:41.556Z,6.27
2019-02-20T04:13:29.283Z,6.03
2019-02-20T04:16:17.658Z,5.53
2019-02-20T04:19:06.285Z,6.33
2019-02-20T04:21:54.737Z,6.57
2019-02-20T04:24:43.184Z,6.77
2019-02-20T04:27:31.226Z,6.30
2019-02-20T04:30:18.894Z,5.83
2019-02-20T04:33:07.433Z,5.73
2019-02-20T04:35:55.665Z,5.70
2019-02-20T04:38:43.550Z,5.57
2019-02-20T04:41:31.709Z,10.23
2019-02-20T04:44:20.326Z,11.03
2019-02-20T04:47:08.672Z,7.23
2019-02-20T04:49:57.325Z,8.33
2019-02-20T04:52:46.134Z,5.47
2019-02-20T04:55:34.702Z,5.43
2019-02-20T04:58:25.636Z,6.13
2019-02-20T05:01:14.150Z,7.00
2019-02-20T05:04:02.663Z,7.07
2019-02-20T05:06:50.741Z,7.87
2019-02-20T05:09:39.709Z,7.17
2019-02-20T05:12:28.060Z,7.43
2019-02-20T05:15:16.288Z,7.73
2019-02-20T05:18:04.173Z,7.40
2019-02-20T05:20:52.315Z,8.10
2019-02-20T05:23:42.779Z,8.30
2019-02-20T05:26:31.135Z,6.13
2019-02-20T05:29:18.856Z,5.90
2019-02-20T05:32:07.714Z,6.10
2019-02-20T05:34:55.484Z,6.50
2019-02-20T05:37:43.432Z,6.53
2019-02-20T05:40:32.208Z,6.07
2019-02-20T05:43:20.689Z,7.30
2019-02-20T05:46:08.800Z,7.40
2019-02-20T05:48:56.572Z,7.63
2019-02-20T05:51:44.945Z,6.80
2019-02-20T05:54:34.908Z,8.37
2019-02-20T05:57:22.998Z,7.20
2019-02-20T06:00:10.880Z,7.33
2019-02-20T06:02:59.117Z,6.97
2019-02-20T06:05:48.123Z,7.33
2019-02-20T06:08:36.687Z,11.30
2019-02-20T06:11:25.062Z,11.50
2019-02-20T06:14:13.801Z,11.13
2019-02-20T06:17:02.485Z,10.90
2019-02-20T06:19:50.475Z,11.53
2019-02-20T06:22:38.329Z,9.70
2019-02-20T06:25:26.299Z,7.97
2019-02-20T06:28:14.765Z,8.20
2019-02-20T06:31:03.343Z,8.73
2019-02-20T06:33:51.521Z,8.23
2019-02-20T06:36:39.649Z,6.93
2019-02-20T06:39:27.853Z,7.63
2019-02-20T06:42:16.492Z,9.80
2019-02-20T06:45:04.884Z,11.10
2019-02-20T06:50:40.090Z,11.17
2019-02-20T06:53:27.959Z,11.73
2019-02-20T06:56:15.998Z,11.63
2019-02-20T06:59:03.883Z,10.90
2019-02-20T07:01:51.842Z,11.00
2019-02-20T07:04:39.824Z,8.63
2019-02-20T07:07:27.814Z,7.10
2019-02-20T07:10:16.594Z,10.03
2019-02-20T07:13:05.289Z,11.23
2019-02-20T07:15:53.014Z,10.03
2019-02-20T07:18:41.091Z,10.93
2019-02-20T07:21:29.229Z,8.50
2019-02-20T07:24:17.900Z,10.30
2019-02-20T07:27:06.293Z,11.80
2019-02-20T07:29:54.517Z,8.37
2019-02-20T07:32:42.477Z,9.20
2019-02-20T07:35:30.746Z,10.50
2019-02-20T07:38:18.591Z,10.93
2019-02-20T07:41:07.383Z,10.37
2019-02-20T07:43:55.203Z,11.03
2019-02-20T07:46:43.624Z,11.33
2019-02-20T07:49:31.781Z,11.40
2019-02-20T07:52:19.609Z,10.73
2019-02-20T07:55:13.143Z,11.73
2019-02-20T07:57:57.338Z,10.77
2019-02-20T08:00:45.716Z,11.73
2019-02-20T08:03:33.718Z,11.47
2019-02-20T08:06:21.738Z,11.80
2019-02-20T08:09:09.884Z,10.87
2019-02-20T08:11:58.450Z,11.83
2019-02-20T08:14:47.696Z,11.67
2019-02-20T08:17:36.299Z,12.13
2019-02-20T08:20:24.730Z,11.70
2019-02-20T08:23:12.910Z,12.20
2019-02-20T08:26:01.007Z,11.63
2019-02-20T08:28:48.995Z,11.43
2019-02-20T08:31:37.509Z,11.53
2019-02-20T08:34:25.939Z,12.40
2019-02-20T08:37:14.357Z,12.13
2019-02-20T08:40:02.391Z,12.80
2019-02-20T08:42:50.338Z,11.30
2019-02-20T08:45:39.143Z,12.00
2019-02-20T08:48:27.849Z,12.13
2019-02-20T08:51:15.990Z,11.93
2019-02-20T08:54:04.626Z,12.43
2019-02-20T08:56:53.177Z,11.60
2019-02-20T08:59:41.396Z,10.80
2019-02-20T09:02:30.201Z,10.97
2019-02-20T09:05:18.110Z,8.83
2019-02-20T09:08:06.499Z,8.47
2019-02-20T09:10:55.397Z,9.20
2019-02-20T09:13:44.037Z,10.03
2019-02-20T09:16:32.108Z,9.43
2019-02-20T09:19:20.025Z,10.40
2019-02-20T09:22:07.918Z,10.20
2019-02-20T09:24:55.946Z,10.67
2019-02-20T09:27:44.023Z,9.90
2019-02-20T09:30:32.159Z,11.33
2019-02-20T09:33:20.143Z,13.00
2019-02-20T09:36:08.589Z,12.13
2019-02-20T09:38:56.608Z,11.93
2019-02-20T09:41:44.913Z,11.53
2019-02-20T09:44:32.726Z,12.03
2019-02-20T09:47:20.994Z,11.27
2019-02-20T09:50:09.301Z,12.17
2019-02-20T09:52:57.346Z,12.27
2019-02-20T09:55:51.468Z,11.80
2019-02-20T09:58:35.437Z,12.17
2019-02-20T10:01:24.008Z,11.93
2019-02-20T10:04:11.969Z,12.47
2019-02-20T10:07:00.148Z,11.93
2019-02-20T10:09:48.616Z,12.07
2019-02-20T10:12:36.819Z,12.43
2019-02-20T10:15:24.660Z,14.77
2019-02-20T10:18:12.932Z,14.27
2019-02-20T10:21:01.021Z,14.47
2019-02-20T10:29:23.107Z,14.50
2019-02-20T10:32:11.441Z,15.30
2019-02-20T10:34:59.496Z,14.57
2019-02-20T10:37:47.671Z,14.87
2019-02-20T10:40:36.055Z,15.37
2019-02-20T10:43:24.302Z,14.97
2019-02-20T10:46:12.563Z,15.10
2019-02-20T10:49:00.393Z,14.80
2019-02-20T10:54:33.770Z,14.63
2019-02-20T10:57:22.459Z,14.90
2019-02-20T11:00:23.575Z,14.43
2019-02-20T11:03:05.402Z,14.43
2019-02-20T11:08:59.203Z,13.30
2019-02-20T11:11:47.101Z,13.50
2019-02-20T11:14:37.675Z,12.67
2019-02-20T11:17:25.272Z,15.37
2019-02-20T11:20:14.035Z,13.33
2019-02-20T11:23:01.932Z,12.63
2019-02-20T11:25:50.544Z,13.53
2019-02-20T11:28:39.321Z,13.80
2019-02-20T11:31:27.097Z,12.77
2019-02-20T11:34:15.014Z,13.17
2019-02-20T11:39:54.247Z,12.53
2019-02-20T11:42:42.694Z,11.47
2019-02-20T11:45:31.383Z,10.80
2019-02-20T11:48:19.382Z,10.23
2019-02-20T11:51:08.053Z,10.77
2019-02-20T11:53:57.615Z,9.90
2019-02-20T11:56:46.198Z,9.90
2019-02-20T11:59:34.391Z,9.20
2019-02-20T12:02:23.040Z,10.30
2019-02-20T12:05:11.149Z,10.10
2019-02-20T12:10:45.777Z,11.47
2019-02-20T12:13:34.516Z,15.53
2019-02-20T12:16:23.111Z,15.73
2019-02-20T12:19:11.317Z,16.73
2019-02-20T12:21:59.099Z,15.87
2019-02-20T12:24:46.939Z,16.60
2019-02-20T12:27:35.377Z,15.10
2019-02-20T12:30:23.699Z,15.80
2019-02-20T12:33:12.265Z,15.57
2019-02-20T12:36:00.914Z,15.83
2019-02-20T12:41:35.986Z,15.83
2019-02-20T12:44:23.683Z,16.13
2019-02-20T12:47:12.011Z,16.20
2019-02-20T12:50:00.319Z,15.93
2019-02-20T12:52:48.545Z,15.83
2019-02-20T12:58:21.881Z,17.47
2019-02-20T13:01:10.205Z,16.83
2019-02-20T13:03:58.328Z,16.20
2019-02-20T13:06:47.092Z,17.40
2019-02-20T13:09:35.759Z,17.07
2019-02-20T13:12:24.269Z,16.50
2019-02-20T13:15:12.762Z,17.63
2019-02-20T13:18:00.733Z,17.00
2019-02-20T13:20:48.798Z,17.77
2019-02-20T13:23:36.789Z,17.77
2019-02-20T13:26:24.862Z,17.73
2019-02-20T13:29:13.599Z,16.87
2019-02-20T13:32:02.302Z,16.83
2019-02-20T13:34:50.744Z,18.43
2019-02-20T13:37:39.176Z,17.07
2019-02-20T13:40:26.935Z,17.57
2019-02-20T13:43:14.962Z,17.83
2019-02-20T13:46:03.936Z,17.17
2019-02-20T13:48:52.450Z,18.13
2019-02-20T13:51:40.197Z,18.07
2019-02-20T13:54:28.926Z,17.97
2019-02-20T13:57:17.705Z,17.83
2019-02-20T14:00:06.601Z,17.70
2019-02-20T14:02:55.441Z,17.17
2019-02-20T14:05:44.326Z,17.20
2019-02-20T14:08:32.215Z,17.20
2019-02-20T14:11:20.258Z,16.37
2019-02-20T14:14:09.069Z,17.27
2019-02-20T14:16:57.264Z,16.33
2019-02-20T14:19:46.460Z,16.50
2019-02-20T14:22:34.488Z,16.27
2019-02-20T14:25:23.840Z,16.90
2019-02-20T14:28:11.731Z,16.67
2019-02-20T14:30:59.512Z,15.40
2019-02-20T14:33:47.933Z,15.93
2019-02-20T14:36:35.864Z,16.77
2019-02-20T14:39:23.873Z,15.53
2019-02-20T14:42:12.365Z,16.73
2019-02-20T14:45:00.816Z,17.47
2019-02-20T14:47:48.570Z,15.97
2019-02-20T14:50:37.460Z,16.03
2019-02-20T14:56:14.728Z,15.10
2019-02-20T14:59:02.494Z,15.07
2019-02-20T15:01:50.577Z,15.20
2019-02-20T15:04:38.705Z,14.23
2019-02-20T15:07:27.001Z,13.97
2019-02-20T15:10:15.721Z,14.73
2019-02-20T15:13:03.842Z,14.13
2019-02-20T15:15:52.006Z,13.07
2019-02-20T15:18:40.695Z,13.70
2019-02-20T15:21:29.349Z,12.13
2019-02-20T15:24:17.923Z,11.87
2019-02-20T15:27:06.291Z,10.27
2019-02-20T15:29:54.602Z,10.33
2019-02-20T15:32:43.042Z,9.30
2019-02-20T15:35:31.102Z,8.83
2019-02-20T15:38:19.074Z,9.07
2019-02-20T15:41:07.060Z,9.10
2019-02-20T15:43:55.326Z,9.03
2019-02-20T15:46:43.476Z,9.10
2019-02-20T15:49:31.820Z,8.80
2019-02-20T15:52:20.242Z,9.10
2019-02-20T15:55:08.583Z,9.57
2019-02-20T15:57:56.320Z,9.10
2019-02-20T16:00:44.400Z,9.33
2019-02-20T16:03:32.295Z,9.57
2019-02-20T16:06:20.409Z,8.80
2019-02-20T16:09:08.482Z,9.27
2019-02-20T16:11:56.504Z,9.63
2019-02-20T16:14:45.288Z,9.53
2019-02-20T16:17:33.464Z,14.27
2019-02-20T16:20:22.211Z,14.33
2019-02-20T16:23:10.721Z,15.10
2019-02-20T16:25:58.635Z,15.70
2019-02-20T16:28:46.425Z,15.40
2019-02-20T16:31:34.583Z,14.77
2019-02-20T16:34:22.668Z,13.97
2019-02-20T16:37:10.614Z,14.00
2019-02-20T16:39:58.689Z,13.27
2019-02-20T16:42:47.443Z,11.93
2019-02-20T16:45:35.152Z,11.87
2019-02-20T16:48:23.127Z,12.77
2019-02-20T16:51:11.155Z,12.70
2019-02-20T16:53:59.710Z,12.40
2019-02-20T16:56:47.390Z,13.20
2019-02-20T16:59:35.310Z,10.73
2019-02-20T17:02:23.532Z,10.73
2019-02-20T17:05:14.214Z,9.30
2019-02-20T17:08:01.409Z,9.30
2019-02-20T17:10:49.383Z,9.43
2019-02-20T17:13:39.564Z,9.97
2019-02-20T17:16:27.688Z,10.00
2019-02-20T17:19:16.799Z,9.37
2019-02-20T17:22:04.580Z,8.90
2019-02-20T17:24:53.275Z,9.23
2019-02-20T17:27:41.217Z,10.10
2019-02-20T17:30:29.022Z,9.60
2019-02-20T17:33:17.219Z,9.27
2019-02-20T17:36:05.487Z,8.97
2019-02-20T17:38:53.550Z,9.47
2019-02-20T17:41:41.905Z,8.17
2019-02-20T17:44:30.531Z,8.30
2019-02-20T17:47:18.624Z,7.60
2019-02-20T17:50:06.821Z,8.10
2019-02-20T17:52:56.325Z,9.33
2019-02-20T17:55:45.366Z,7.73
2019-02-20T17:58:42.653Z,8.73
2019-02-20T18:01:31.428Z,10.10
2019-02-20T18:04:21.328Z,9.17
2019-02-20T18:07:09.468Z,10.00
2019-02-20T18:09:59.985Z,9.30
2019-02-20T18:12:51.251Z,8.93
2019-02-20T18:18:32.048Z,10.60
2019-02-20T18:21:20.431Z,9.33
2019-02-20T18:27:07.906Z,10.70
2019-02-20T18:29:57.749Z,9.63
2019-02-20T18:35:38.285Z,10.03
2019-02-20T18:41:24.348Z,8.70
2019-02-20T18:44:12.921Z,10.33
2019-02-20T18:47:01.436Z,8.77
2019-02-20T18:59:00.024Z,8.23
2019-02-20T19:01:48.187Z,9.10
2019-02-20T19:04:44.551Z,8.07
2019-02-20T19:07:33.522Z,7.40
2019-02-20T19:10:25.402Z,7.40
2019-02-20T19:13:15.427Z,7.93
2019-02-20T19:16:03.304Z,9.03
2019-02-20T19:21:45.112Z,8.80
2019-02-20T19:24:33.556Z,8.00
2019-02-20T19:27:22.884Z,8.03
2019-02-20T19:30:11.112Z,8.77
2019-02-20T19:32:59.684Z,9.80
2019-02-20T19:35:47.529Z,9.13
2019-02-20T19:38:35.350Z,9.03
2019-02-20T19:41:23.936Z,9.27
2019-02-20T19:44:12.160Z,9.80
2019-02-20T19:47:00.431Z,9.90
2019-02-20T19:49:51.547Z,10.30
2019-02-20T19:52:40.813Z,9.20
2019-02-20T19:55:28.688Z,9.17
2019-02-20T20:01:03.696Z,9.10
2019-02-20T20:03:53.259Z,10.33
2019-02-20T20:09:33.270Z,8.83
2019-02-20T20:12:25.947Z,9.03
2019-02-20T20:15:14.681Z,8.27
2019-02-20T20:18:03.733Z,8.90
2019-02-20T20:20:51.912Z,9.17
2019-02-20T20:23:40.403Z,9.57
2019-02-20T20:26:28.838Z,9.97
2019-02-20T20:29:17.966Z,11.03
2019-02-20T20:32:06.563Z,10.60
2019-02-20T20:34:54.889Z,11.73
2019-02-20T20:37:42.826Z,11.43
2019-02-20T20:40:51.631Z,11.20
2019-02-20T20:43:40.721Z,12.27
2019-02-20T20:46:30.244Z,10.30
2019-02-20T20:49:19.699Z,11.30
2019-02-20T20:52:07.851Z,11.60
2019-02-20T20:57:51.044Z,10.80
2019-02-20T21:00:40.902Z,11.53
2019-02-20T21:03:29.718Z,11.13
2019-02-20T21:06:18.119Z,12.00
2019-02-20T21:09:07.034Z,11.33
2019-02-20T21:11:56.170Z,11.77
2019-02-20T21:14:47.210Z,11.57
2019-02-20T21:17:38.374Z,10.53
2019-02-20T21:23:22.496Z,14.27
2019-02-20T21:29:02.728Z,15.93
2019-02-20T21:31:54.333Z,14.17
2019-02-20T21:34:42.380Z,14.33
2019-02-20T21:37:31.340Z,14.13
2019-02-20T21:40:20.051Z,13.50
2019-02-20T21:43:09.330Z,12.73
2019-02-20T21:45:57.749Z,11.00
2019-02-20T21:48:45.775Z,11.37
2019-02-20T21:51:34.464Z,11.23
2019-02-20T21:54:25.978Z,11.50
2019-02-20T21:57:13.907Z,11.03
2019-02-20T22:00:02.875Z,13.03
2019-02-20T22:02:51.416Z,12.73
2019-02-20T22:05:40.848Z,12.17
2019-02-20T22:08:29.048Z,12.10
2019-02-20T22:11:27.384Z,12.33
2019-02-20T22:14:15.639Z,11.87
2019-02-20T22:17:04.163Z,11.13
2019-02-20T22:19:52.681Z,11.63
2019-02-20T22:22:40.920Z,11.80
2019-02-20T22:25:29.068Z,11.57
2019-02-20T22:28:17.924Z,12.40
2019-02-20T22:31:06.049Z,12.60
2019-02-20T22:33:54.254Z,11.70
2019-02-20T22:36:43.094Z,11.57
2019-02-20T22:39:31.764Z,10.77
2019-02-20T22:42:21.397Z,11.20
2019-02-20T22:45:10.873Z,10.80
2019-02-20T22:47:59.433Z,10.93
2019-02-20T22:50:48.431Z,12.27
2019-02-20T22:53:36.668Z,10.87
2019-02-20T22:56:24.741Z,11.97
2019-02-20T22:59:12.518Z,12.17
2019-02-20T23:02:00.967Z,12.20
2019-02-20T23:04:49.869Z,11.60
2019-02-20T23:07:41.246Z,12.07
2019-02-20T23:10:31.141Z,13.03
2019-02-20T23:13:20.587Z,12.73
2019-02-20T23:16:10.509Z,13.20
2019-02-20T23:18:59.307Z,14.63
2019-02-20T23:21:48.241Z,15.07
2019-02-20T23:24:42.147Z,17.27
2019-02-20T23:27:32.053Z,16.03
2019-02-20T23:30:20.000Z,15.53
2019-02-20T23:33:07.970Z,12.13
2019-02-20T23:35:57.230Z,12.70
2019-02-20T23:38:45.832Z,14.30
2019-02-20T23:41:33.955Z,13.67
2019-02-20T23:44:22.297Z,12.63
2019-02-20T23:47:10.743Z,13.97
2019-02-20T23:49:58.975Z,12.77
2019-02-20T23:52:47.382Z,14.40
2019-02-20T23:55:35.911Z,15.47
2019-02-20T23:58:23.954Z,16.00
